sensor_id;sensor_type;location;lat;lon;timestamp;P1;durP1;ratioP1;P2;durP2;ratioP2
18376;SDS011;9315;52.624;13.544;2022-08-20T00:01:37;12.55;;;11.32;;
18376;SDS011;9315;52.624;13.544;2022-08-20T00:04:04;13.70;;;12.30;;
18376;SDS011;9315;52.624;13.544;2022-08-20T00:06:32;12.63;;;11.10;;
18376;SDS011;9315;52.624;13.544;2022-08-20T00:08:59;12.13;;;10.52;;
18376;SDS011;9315;52.624;13.544;2022-08-20T00:11:26;10.77;;;9.68;;
18376;SDS011;9315;52.624;13.544;2022-08-20T00:13:55;13.45;;;11.30;;
18376;SDS011;9315;52.624;13.544;2022-08-20T00:16:28;12.25;;;10.95;;
18376;SDS011;9315;52.624;13.544;2022-08-20T00:19:01;10.82;;;9.82;;
18376;SDS011;9315;52.624;13.544;2022-08-20T00:21:32;11.55;;;10.32;;
18376;SDS011;9315;52.624;13.544;2022-08-20T00:24:01;11.35;;;10.25;;
18376;SDS011;9315;52.624;13.544;2022-08-20T00:26:30;12.95;;;11.05;;
18376;SDS011;9315;52.624;13.544;2022-08-20T00:28:57;12.82;;;11.40;;
18376;SDS011;9315;52.624;13.544;2022-08-20T00:31:24;13.30;;;12.00;;
18376;SDS011;9315;52.624;13.544;2022-08-20T00:33:52;14.60;;;13.00;;
18376;SDS011;9315;52.624;13.544;2022-08-20T00:36:19;20.13;;;15.60;;
18376;SDS011;9315;52.624;13.544;2022-08-20T00:38:57;18.33;;;16.25;;
18376;SDS011;9315;52.624;13.544;2022-08-20T00:41:25;21.10;;;16.30;;
18376;SDS011;9315;52.624;13.544;2022-08-20T00:46:42;24.80;;;19.15;;
18376;SDS011;9315;52.624;13.544;2022-08-20T00:49:13;30.58;;;22.10;;
18376;SDS011;9315;52.624;13.544;2022-08-20T00:54:40;31.92;;;22.40;;
18376;SDS011;9315;52.624;13.544;2022-08-20T00:57:21;25.15;;;19.65;;
18376;SDS011;9315;52.624;13.544;2022-08-20T01:00:31;34.40;;;24.40;;
18376;SDS011;9315;52.624;13.544;2022-08-20T01:03:09;31.17;;;22.80;;
18376;SDS011;9315;52.624;13.544;2022-08-20T01:05:41;34.85;;;23.73;;
18376;SDS011;9315;52.624;13.544;2022-08-20T01:08:14;37.55;;;25.05;;
18376;SDS011;9315;52.624;13.544;2022-08-20T01:10:46;25.65;;;19.58;;
18376;SDS011;9315;52.624;13.544;2022-08-20T01:13:17;40.50;;;25.98;;
18376;SDS011;9315;52.624;13.544;2022-08-20T01:15:49;23.65;;;19.23;;
18376;SDS011;9315;52.624;13.544;2022-08-20T01:18:22;23.08;;;18.33;;
18376;SDS011;9315;52.624;13.544;2022-08-20T01:20:54;34.70;;;23.23;;
18376;SDS011;9315;52.624;13.544;2022-08-20T01:26:40;40.42;;;25.95;;
18376;SDS011;9315;52.624;13.544;2022-08-20T01:29:13;43.95;;;27.85;;
18376;SDS011;9315;52.624;13.544;2022-08-20T01:31:48;34.78;;;24.85;;
18376;SDS011;9315;52.624;13.544;2022-08-20T01:34:17;31.92;;;23.35;;
18376;SDS011;9315;52.624;13.544;2022-08-20T01:36:47;21.80;;;17.27;;
18376;SDS011;9315;52.624;13.544;2022-08-20T01:39:20;43.65;;;27.25;;
18376;SDS011;9315;52.624;13.544;2022-08-20T01:44:52;57.97;;;30.92;;
18376;SDS011;9315;52.624;13.544;2022-08-20T01:47:24;62.63;;;33.60;;
18376;SDS011;9315;52.624;13.544;2022-08-20T01:50:08;43.35;;;28.27;;
18376;SDS011;9315;52.624;13.544;2022-08-20T01:52:54;58.85;;;32.13;;
18376;SDS011;9315;52.624;13.544;2022-08-20T01:55:55;49.17;;;30.90;;
18376;SDS011;9315;52.624;13.544;2022-08-20T01:58:22;51.13;;;30.65;;
18376;SDS011;9315;52.624;13.544;2022-08-20T02:00:49;68.40;;;35.28;;
18376;SDS011;9315;52.624;13.544;2022-08-20T02:03:16;61.30;;;34.30;;
18376;SDS011;9315;52.624;13.544;2022-08-20T02:05:43;55.53;;;31.95;;
18376;SDS011;9315;52.624;13.544;2022-08-20T02:08:10;53.97;;;30.98;;
18376;SDS011;9315;52.624;13.544;2022-08-20T02:10:37;61.17;;;33.72;;
18376;SDS011;9315;52.624;13.544;2022-08-20T02:13:05;54.85;;;32.15;;
18376;SDS011;9315;52.624;13.544;2022-08-20T02:15:35;64.35;;;36.35;;
18376;SDS011;9315;52.624;13.544;2022-08-20T02:18:05;56.47;;;31.83;;
18376;SDS011;9315;52.624;13.544;2022-08-20T02:20:37;45.28;;;29.20;;
18376;SDS011;9315;52.624;13.544;2022-08-20T02:23:06;49.42;;;31.05;;
18376;SDS011;9315;52.624;13.544;2022-08-20T02:25:35;48.95;;;29.90;;
18376;SDS011;9315;52.624;13.544;2022-08-20T02:28:06;61.72;;;34.10;;
18376;SDS011;9315;52.624;13.544;2022-08-20T02:30:41;43.70;;;27.98;;
18376;SDS011;9315;52.624;13.544;2022-08-20T02:33:14;47.35;;;29.95;;
18376;SDS011;9315;52.624;13.544;2022-08-20T02:35:49;44.30;;;30.13;;
18376;SDS011;9315;52.624;13.544;2022-08-20T02:38:18;48.95;;;30.85;;
18376;SDS011;9315;52.624;13.544;2022-08-20T02:40:45;54.83;;;31.88;;
18376;SDS011;9315;52.624;13.544;2022-08-20T02:43:14;44.33;;;28.45;;
18376;SDS011;9315;52.624;13.544;2022-08-20T02:45:43;39.33;;;27.02;;
18376;SDS011;9315;52.624;13.544;2022-08-20T02:48:12;39.05;;;25.70;;
18376;SDS011;9315;52.624;13.544;2022-08-20T02:50:48;45.38;;;27.85;;
18376;SDS011;9315;52.624;13.544;2022-08-20T02:53:29;34.85;;;25.17;;
18376;SDS011;9315;52.624;13.544;2022-08-20T02:56:06;44.95;;;28.77;;
18376;SDS011;9315;52.624;13.544;2022-08-20T02:58:36;43.90;;;28.08;;
18376;SDS011;9315;52.624;13.544;2022-08-20T03:01:15;40.58;;;26.92;;
18376;SDS011;9315;52.624;13.544;2022-08-20T03:03:43;39.80;;;26.05;;
18376;SDS011;9315;52.624;13.544;2022-08-20T03:06:10;43.80;;;28.48;;
18376;SDS011;9315;52.624;13.544;2022-08-20T03:08:39;36.88;;;24.33;;
18376;SDS011;9315;52.624;13.544;2022-08-20T03:11:07;38.38;;;26.70;;
18376;SDS011;9315;52.624;13.544;2022-08-20T03:13:35;22.00;;;17.77;;
18376;SDS011;9315;52.624;13.544;2022-08-20T03:16:02;52.67;;;30.30;;
18376;SDS011;9315;52.624;13.544;2022-08-20T03:18:31;54.78;;;30.25;;
18376;SDS011;9315;52.624;13.544;2022-08-20T03:21:07;51.95;;;27.60;;
18376;SDS011;9315;52.624;13.544;2022-08-20T03:23:40;51.47;;;29.65;;
18376;SDS011;9315;52.624;13.544;2022-08-20T03:26:09;51.75;;;28.33;;
18376;SDS011;9315;52.624;13.544;2022-08-20T03:28:39;59.85;;;32.45;;
18376;SDS011;9315;52.624;13.544;2022-08-20T03:31:07;48.63;;;27.83;;
18376;SDS011;9315;52.624;13.544;2022-08-20T03:33:40;47.45;;;28.10;;
18376;SDS011;9315;52.624;13.544;2022-08-20T03:36:18;57.40;;;31.27;;
18376;SDS011;9315;52.624;13.544;2022-08-20T03:38:54;58.65;;;29.65;;
18376;SDS011;9315;52.624;13.544;2022-08-20T03:41:29;54.65;;;31.08;;
18376;SDS011;9315;52.624;13.544;2022-08-20T03:43:57;52.03;;;28.73;;
18376;SDS011;9315;52.624;13.544;2022-08-20T03:46:24;48.60;;;27.85;;
18376;SDS011;9315;52.624;13.544;2022-08-20T03:48:51;55.88;;;30.08;;
18376;SDS011;9315;52.624;13.544;2022-08-20T03:51:25;48.47;;;27.83;;
18376;SDS011;9315;52.624;13.544;2022-08-20T03:54:17;51.47;;;30.23;;
18376;SDS011;9315;52.624;13.544;2022-08-20T03:56:44;58.22;;;31.00;;
18376;SDS011;9315;52.624;13.544;2022-08-20T03:59:11;58.95;;;31.83;;
18376;SDS011;9315;52.624;13.544;2022-08-20T04:01:38;65.18;;;32.40;;
18376;SDS011;9315;52.624;13.544;2022-08-20T04:04:12;44.58;;;26.30;;
18376;SDS011;9315;52.624;13.544;2022-08-20T04:06:40;50.50;;;28.92;;
18376;SDS011;9315;52.624;13.544;2022-08-20T04:09:09;55.15;;;31.50;;
18376;SDS011;9315;52.624;13.544;2022-08-20T04:11:37;50.53;;;29.98;;
18376;SDS011;9315;52.624;13.544;2022-08-20T04:14:06;55.55;;;30.55;;
18376;SDS011;9315;52.624;13.544;2022-08-20T04:16:36;60.45;;;31.17;;
18376;SDS011;9315;52.624;13.544;2022-08-20T04:19:04;62.08;;;32.97;;
18376;SDS011;9315;52.624;13.544;2022-08-20T04:21:33;54.45;;;31.60;;
18376;SDS011;9315;52.624;13.544;2022-08-20T04:24:02;54.95;;;30.98;;
18376;SDS011;9315;52.624;13.544;2022-08-20T04:26:31;54.88;;;31.95;;
18376;SDS011;9315;52.624;13.544;2022-08-20T04:29:01;61.03;;;33.15;;
18376;SDS011;9315;52.624;13.544;2022-08-20T04:31:29;53.50;;;30.48;;
18376;SDS011;9315;52.624;13.544;2022-08-20T04:34:00;52.08;;;30.60;;
18376;SDS011;9315;52.624;13.544;2022-08-20T04:36:32;51.65;;;30.20;;
18376;SDS011;9315;52.624;13.544;2022-08-20T04:39:00;48.55;;;29.00;;
18376;SDS011;9315;52.624;13.544;2022-08-20T04:41:27;57.15;;;32.60;;
18376;SDS011;9315;52.624;13.544;2022-08-20T04:43:54;56.45;;;31.85;;
18376;SDS011;9315;52.624;13.544;2022-08-20T04:46:24;56.83;;;32.13;;
18376;SDS011;9315;52.624;13.544;2022-08-20T04:48:54;63.42;;;34.97;;
18376;SDS011;9315;52.624;13.544;2022-08-20T04:51:22;48.88;;;29.98;;
18376;SDS011;9315;52.624;13.544;2022-08-20T04:53:52;61.28;;;34.25;;
18376;SDS011;9315;52.624;13.544;2022-08-20T04:56:26;64.80;;;35.53;;
18376;SDS011;9315;52.624;13.544;2022-08-20T04:58:56;54.13;;;31.67;;
18376;SDS011;9315;52.624;13.544;2022-08-20T05:01:27;66.68;;;34.42;;
18376;SDS011;9315;52.624;13.544;2022-08-20T05:03:55;56.50;;;33.30;;
18376;SDS011;9315;52.624;13.544;2022-08-20T05:06:25;44.92;;;28.38;;
18376;SDS011;9315;52.624;13.544;2022-08-20T05:08:57;59.10;;;32.58;;
18376;SDS011;9315;52.624;13.544;2022-08-20T05:11:26;61.72;;;34.10;;
18376;SDS011;9315;52.624;13.544;2022-08-20T05:14:00;53.85;;;32.00;;
18376;SDS011;9315;52.624;13.544;2022-08-20T05:16:27;40.92;;;27.73;;
18376;SDS011;9315;52.624;13.544;2022-08-20T05:18:54;55.65;;;33.25;;
18376;SDS011;9315;52.624;13.544;2022-08-20T05:21:21;50.25;;;30.52;;
18376;SDS011;9315;52.624;13.544;2022-08-20T05:23:48;51.70;;;31.92;;
18376;SDS011;9315;52.624;13.544;2022-08-20T05:26:16;51.15;;;31.52;;
18376;SDS011;9315;52.624;13.544;2022-08-20T05:28:45;47.40;;;29.90;;
18376;SDS011;9315;52.624;13.544;2022-08-20T05:31:24;47.88;;;30.23;;
18376;SDS011;9315;52.624;13.544;2022-08-20T05:34:02;54.00;;;31.52;;
18376;SDS011;9315;52.624;13.544;2022-08-20T05:36:36;44.17;;;28.98;;
18376;SDS011;9315;52.624;13.544;2022-08-20T05:39:12;44.50;;;30.08;;
18376;SDS011;9315;52.624;13.544;2022-08-20T05:41:40;51.25;;;30.35;;
18376;SDS011;9315;52.624;13.544;2022-08-20T05:44:08;50.20;;;31.35;;
18376;SDS011;9315;52.624;13.544;2022-08-20T05:46:39;45.05;;;30.02;;
18376;SDS011;9315;52.624;13.544;2022-08-20T05:49:10;53.28;;;31.98;;
18376;SDS011;9315;52.624;13.544;2022-08-20T05:51:45;47.17;;;30.50;;
18376;SDS011;9315;52.624;13.544;2022-08-20T05:54:14;48.50;;;31.48;;
18376;SDS011;9315;52.624;13.544;2022-08-20T05:56:41;47.78;;;30.48;;
18376;SDS011;9315;52.624;13.544;2022-08-20T05:59:09;47.45;;;29.65;;
18376;SDS011;9315;52.624;13.544;2022-08-20T06:01:39;47.60;;;29.65;;
18376;SDS011;9315;52.624;13.544;2022-08-20T06:04:08;44.10;;;29.55;;
18376;SDS011;9315;52.624;13.544;2022-08-20T06:07:06;41.70;;;28.10;;
18376;SDS011;9315;52.624;13.544;2022-08-20T06:09:33;41.55;;;27.90;;
18376;SDS011;9315;52.624;13.544;2022-08-20T06:12:02;44.50;;;29.98;;
18376;SDS011;9315;52.624;13.544;2022-08-20T06:14:32;39.35;;;28.10;;
18376;SDS011;9315;52.624;13.544;2022-08-20T06:17:04;44.80;;;27.98;;
18376;SDS011;9315;52.624;13.544;2022-08-20T06:19:40;42.55;;;26.90;;
18376;SDS011;9315;52.624;13.544;2022-08-20T06:22:10;41.42;;;27.83;;
18376;SDS011;9315;52.624;13.544;2022-08-20T06:24:48;36.97;;;25.13;;
18376;SDS011;9315;52.624;13.544;2022-08-20T06:27:16;40.90;;;27.48;;
18376;SDS011;9315;52.624;13.544;2022-08-20T06:29:43;36.83;;;26.92;;
18376;SDS011;9315;52.624;13.544;2022-08-20T06:32:10;41.25;;;28.40;;
18376;SDS011;9315;52.624;13.544;2022-08-20T06:34:38;37.25;;;26.00;;
18376;SDS011;9315;52.624;13.544;2022-08-20T06:37:17;35.92;;;26.15;;
18376;SDS011;9315;52.624;13.544;2022-08-20T06:39:59;31.80;;;24.88;;
18376;SDS011;9315;52.624;13.544;2022-08-20T06:42:44;33.85;;;25.50;;
18376;SDS011;9315;52.624;13.544;2022-08-20T06:45:16;38.55;;;27.13;;
18376;SDS011;9315;52.624;13.544;2022-08-20T06:47:50;39.30;;;28.17;;
18376;SDS011;9315;52.624;13.544;2022-08-20T06:50:25;36.60;;;26.02;;
18376;SDS011;9315;52.624;13.544;2022-08-20T06:53:13;39.90;;;28.40;;
18376;SDS011;9315;52.624;13.544;2022-08-20T06:55:52;40.53;;;27.50;;
18376;SDS011;9315;52.624;13.544;2022-08-20T06:58:21;31.30;;;23.77;;
18376;SDS011;9315;52.624;13.544;2022-08-20T07:01:03;39.08;;;27.58;;
18376;SDS011;9315;52.624;13.544;2022-08-20T07:03:40;49.70;;;29.40;;
18376;SDS011;9315;52.624;13.544;2022-08-20T07:06:21;49.15;;;30.17;;
18376;SDS011;9315;52.624;13.544;2022-08-20T07:08:52;42.92;;;30.17;;
18376;SDS011;9315;52.624;13.544;2022-08-20T07:11:20;49.42;;;30.77;;
18376;SDS011;9315;52.624;13.544;2022-08-20T07:13:54;45.47;;;31.52;;
18376;SDS011;9315;52.624;13.544;2022-08-20T07:16:23;46.88;;;31.83;;
18376;SDS011;9315;52.624;13.544;2022-08-20T07:18:50;50.40;;;32.17;;
18376;SDS011;9315;52.624;13.544;2022-08-20T07:21:17;52.05;;;32.28;;
18376;SDS011;9315;52.624;13.544;2022-08-20T07:23:44;51.88;;;33.80;;
18376;SDS011;9315;52.624;13.544;2022-08-20T07:26:14;49.08;;;31.10;;
18376;SDS011;9315;52.624;13.544;2022-08-20T07:28:42;53.53;;;33.47;;
18376;SDS011;9315;52.624;13.544;2022-08-20T07:31:10;55.08;;;34.88;;
18376;SDS011;9315;52.624;13.544;2022-08-20T07:33:57;57.08;;;36.20;;
18376;SDS011;9315;52.624;13.544;2022-08-20T07:36:25;55.95;;;36.33;;
18376;SDS011;9315;52.624;13.544;2022-08-20T07:38:53;63.67;;;37.30;;
18376;SDS011;9315;52.624;13.544;2022-08-20T07:41:22;54.55;;;35.15;;
18376;SDS011;9315;52.624;13.544;2022-08-20T07:43:49;68.55;;;37.22;;
18376;SDS011;9315;52.624;13.544;2022-08-20T07:46:17;76.88;;;39.83;;
18376;SDS011;9315;52.624;13.544;2022-08-20T07:48:47;71.78;;;40.63;;
18376;SDS011;9315;52.624;13.544;2022-08-20T07:51:16;76.97;;;41.15;;
18376;SDS011;9315;52.624;13.544;2022-08-20T07:53:48;64.18;;;37.55;;
18376;SDS011;9315;52.624;13.544;2022-08-20T07:56:18;78.78;;;40.75;;
18376;SDS011;9315;52.624;13.544;2022-08-20T07:58:50;72.22;;;41.75;;
18376;SDS011;9315;52.624;13.544;2022-08-20T08:01:28;77.53;;;44.17;;
18376;SDS011;9315;52.624;13.544;2022-08-20T08:03:57;82.57;;;42.90;;
18376;SDS011;9315;52.624;13.544;2022-08-20T08:06:26;83.68;;;43.58;;
18376;SDS011;9315;52.624;13.544;2022-08-20T08:09:04;80.40;;;43.13;;
18376;SDS011;9315;52.624;13.544;2022-08-20T08:11:37;88.60;;;44.75;;
18376;SDS011;9315;52.624;13.544;2022-08-20T08:14:16;90.70;;;44.65;;
18376;SDS011;9315;52.624;13.544;2022-08-20T08:16:48;83.72;;;43.15;;
18376;SDS011;9315;52.624;13.544;2022-08-20T08:19:18;64.82;;;38.85;;
18376;SDS011;9315;52.624;13.544;2022-08-20T08:21:46;73.00;;;40.00;;
18376;SDS011;9315;52.624;13.544;2022-08-20T08:24:14;79.50;;;41.72;;
18376;SDS011;9315;52.624;13.544;2022-08-20T08:26:47;80.15;;;42.38;;
18376;SDS011;9315;52.624;13.544;2022-08-20T08:29:15;75.35;;;41.13;;
18376;SDS011;9315;52.624;13.544;2022-08-20T08:31:42;74.53;;;41.65;;
18376;SDS011;9315;52.624;13.544;2022-08-20T08:34:10;78.82;;;42.75;;
18376;SDS011;9315;52.624;13.544;2022-08-20T08:36:38;75.30;;;42.60;;
18376;SDS011;9315;52.624;13.544;2022-08-20T08:39:05;72.15;;;41.78;;
18376;SDS011;9315;52.624;13.544;2022-08-20T08:41:34;66.05;;;41.65;;
18376;SDS011;9315;52.624;13.544;2022-08-20T08:44:15;63.83;;;40.60;;
18376;SDS011;9315;52.624;13.544;2022-08-20T08:46:59;66.15;;;38.80;;
18376;SDS011;9315;52.624;13.544;2022-08-20T08:49:43;59.97;;;38.55;;
18376;SDS011;9315;52.624;13.544;2022-08-20T08:52:19;64.38;;;37.58;;
18376;SDS011;9315;52.624;13.544;2022-08-20T08:54:58;50.88;;;34.00;;
18376;SDS011;9315;52.624;13.544;2022-08-20T08:57:32;57.53;;;37.53;;
18376;SDS011;9315;52.624;13.544;2022-08-20T09:00:00;62.28;;;38.67;;
18376;SDS011;9315;52.624;13.544;2022-08-20T09:02:39;59.38;;;35.55;;
18376;SDS011;9315;52.624;13.544;2022-08-20T09:05:18;59.72;;;35.65;;
18376;SDS011;9315;52.624;13.544;2022-08-20T09:07:48;54.90;;;35.25;;
18376;SDS011;9315;52.624;13.544;2022-08-20T09:10:19;57.63;;;36.03;;
18376;SDS011;9315;52.624;13.544;2022-08-20T09:12:48;53.97;;;34.60;;
18376;SDS011;9315;52.624;13.544;2022-08-20T09:15:17;57.83;;;35.20;;
18376;SDS011;9315;52.624;13.544;2022-08-20T09:17:46;61.40;;;38.53;;
18376;SDS011;9315;52.624;13.544;2022-08-20T09:20:13;57.67;;;36.30;;
18376;SDS011;9315;52.624;13.544;2022-08-20T09:22:40;55.15;;;34.67;;
18376;SDS011;9315;52.624;13.544;2022-08-20T09:25:07;58.50;;;37.78;;
18376;SDS011;9315;52.624;13.544;2022-08-20T09:27:34;56.72;;;37.78;;
18376;SDS011;9315;52.624;13.544;2022-08-20T09:30:04;52.58;;;33.03;;
18376;SDS011;9315;52.624;13.544;2022-08-20T09:32:32;52.38;;;34.65;;
18376;SDS011;9315;52.624;13.544;2022-08-20T09:35:00;49.05;;;33.17;;
18376;SDS011;9315;52.624;13.544;2022-08-20T09:37:31;45.40;;;32.50;;
18376;SDS011;9315;52.624;13.544;2022-08-20T09:40:03;44.65;;;31.55;;
18376;SDS011;9315;52.624;13.544;2022-08-20T09:42:35;46.78;;;32.58;;
18376;SDS011;9315;52.624;13.544;2022-08-20T09:45:07;50.22;;;34.55;;
18376;SDS011;9315;52.624;13.544;2022-08-20T09:47:37;48.42;;;32.90;;
18376;SDS011;9315;52.624;13.544;2022-08-20T09:50:22;45.03;;;29.70;;
18376;SDS011;9315;52.624;13.544;2022-08-20T09:52:56;45.90;;;31.83;;
18376;SDS011;9315;52.624;13.544;2022-08-20T09:58:22;46.22;;;32.40;;
18376;SDS011;9315;52.624;13.544;2022-08-20T10:01:11;41.00;;;30.67;;
18376;SDS011;9315;52.624;13.544;2022-08-20T10:03:42;41.90;;;30.02;;
18376;SDS011;9315;52.624;13.544;2022-08-20T10:06:13;43.58;;;31.52;;
18376;SDS011;9315;52.624;13.544;2022-08-20T10:08:45;43.45;;;31.52;;
18376;SDS011;9315;52.624;13.544;2022-08-20T10:11:13;38.25;;;28.88;;
18376;SDS011;9315;52.624;13.544;2022-08-20T10:13:43;42.00;;;29.90;;
18376;SDS011;9315;52.624;13.544;2022-08-20T10:16:10;40.58;;;28.90;;
18376;SDS011;9315;52.624;13.544;2022-08-20T10:18:38;40.92;;;27.38;;
18376;SDS011;9315;52.624;13.544;2022-08-20T10:21:09;43.15;;;29.85;;
18376;SDS011;9315;52.624;13.544;2022-08-20T10:23:37;39.40;;;29.60;;
18376;SDS011;9315;52.624;13.544;2022-08-20T10:26:05;34.88;;;26.40;;
18376;SDS011;9315;52.624;13.544;2022-08-20T10:28:37;34.38;;;26.95;;
18376;SDS011;9315;52.624;13.544;2022-08-20T10:31:05;33.78;;;24.65;;
18376;SDS011;9315;52.624;13.544;2022-08-20T10:33:34;29.80;;;23.40;;
18376;SDS011;9315;52.624;13.544;2022-08-20T10:38:42;34.83;;;24.95;;
18376;SDS011;9315;52.624;13.544;2022-08-20T10:41:10;31.17;;;24.08;;
18376;SDS011;9315;52.624;13.544;2022-08-20T10:43:37;32.20;;;23.92;;
18376;SDS011;9315;52.624;13.544;2022-08-20T10:46:04;31.20;;;24.42;;
18376;SDS011;9315;52.624;13.544;2022-08-20T10:48:32;26.77;;;23.08;;
18376;SDS011;9315;52.624;13.544;2022-08-20T10:50:59;26.88;;;22.25;;
18376;SDS011;9315;52.624;13.544;2022-08-20T10:53:26;24.02;;;20.38;;
18376;SDS011;9315;52.624;13.544;2022-08-20T10:55:53;28.35;;;19.80;;
18376;SDS011;9315;52.624;13.544;2022-08-20T10:58:23;21.88;;;19.08;;
18376;SDS011;9315;52.624;13.544;2022-08-20T11:01:02;22.67;;;18.75;;
18376;SDS011;9315;52.624;13.544;2022-08-20T11:03:30;22.23;;;18.15;;
18376;SDS011;9315;52.624;13.544;2022-08-20T11:05:57;21.05;;;15.98;;
18376;SDS011;9315;52.624;13.544;2022-08-20T11:08:24;25.00;;;16.45;;
18376;SDS011;9315;52.624;13.544;2022-08-20T11:11:01;18.85;;;14.82;;
18376;SDS011;9315;52.624;13.544;2022-08-20T11:13:31;18.35;;;15.13;;
18376;SDS011;9315;52.624;13.544;2022-08-20T11:16:00;18.35;;;15.20;;
18376;SDS011;9315;52.624;13.544;2022-08-20T11:18:28;20.90;;;15.32;;
18376;SDS011;9315;52.624;13.544;2022-08-20T11:20:56;19.63;;;16.45;;
18376;SDS011;9315;52.624;13.544;2022-08-20T11:23:23;21.60;;;17.65;;
18376;SDS011;9315;52.624;13.544;2022-08-20T11:25:50;22.08;;;17.52;;
18376;SDS011;9315;52.624;13.544;2022-08-20T11:28:17;19.83;;;16.17;;
18376;SDS011;9315;52.624;13.544;2022-08-20T11:30:56;21.80;;;15.77;;
18376;SDS011;9315;52.624;13.544;2022-08-20T11:33:23;15.90;;;14.25;;
18376;SDS011;9315;52.624;13.544;2022-08-20T11:35:50;17.85;;;14.55;;
18376;SDS011;9315;52.624;13.544;2022-08-20T11:38:17;14.23;;;12.70;;
18376;SDS011;9315;52.624;13.544;2022-08-20T11:40:45;17.27;;;12.48;;
18376;SDS011;9315;52.624;13.544;2022-08-20T11:43:13;12.10;;;10.77;;
18376;SDS011;9315;52.624;13.544;2022-08-20T11:45:47;14.98;;;10.85;;
18376;SDS011;9315;52.624;13.544;2022-08-20T11:48:18;9.68;;;8.68;;
18376;SDS011;9315;52.624;13.544;2022-08-20T11:50:45;9.95;;;8.13;;
18376;SDS011;9315;52.624;13.544;2022-08-20T11:53:14;10.05;;;8.82;;
18376;SDS011;9315;52.624;13.544;2022-08-20T11:55:41;9.18;;;7.95;;
18376;SDS011;9315;52.624;13.544;2022-08-20T11:58:09;13.20;;;7.35;;
18376;SDS011;9315;52.624;13.544;2022-08-20T12:00:37;12.18;;;8.25;;
18376;SDS011;9315;52.624;13.544;2022-08-20T12:03:05;8.45;;;7.13;;
18376;SDS011;9315;52.624;13.544;2022-08-20T12:05:35;7.90;;;7.10;;
18376;SDS011;9315;52.624;13.544;2022-08-20T12:08:09;7.70;;;6.25;;
18376;SDS011;9315;52.624;13.544;2022-08-20T12:10:53;8.15;;;6.35;;
18376;SDS011;9315;52.624;13.544;2022-08-20T12:13:27;6.88;;;5.38;;
18376;SDS011;9315;52.624;13.544;2022-08-20T12:16:14;9.32;;;6.00;;
18376;SDS011;9315;52.624;13.544;2022-08-20T12:18:44;9.00;;;5.82;;
18376;SDS011;9315;52.624;13.544;2022-08-20T12:21:13;6.28;;;5.68;;
18376;SDS011;9315;52.624;13.544;2022-08-20T12:23:41;6.78;;;5.63;;
18376;SDS011;9315;52.624;13.544;2022-08-20T12:26:08;9.45;;;5.70;;
18376;SDS011;9315;52.624;13.544;2022-08-20T12:28:35;7.32;;;5.55;;
18376;SDS011;9315;52.624;13.544;2022-08-20T12:31:02;7.40;;;5.88;;
18376;SDS011;9315;52.624;13.544;2022-08-20T12:33:30;5.78;;;5.03;;
18376;SDS011;9315;52.624;13.544;2022-08-20T12:35:57;6.93;;;4.63;;
18376;SDS011;9315;52.624;13.544;2022-08-20T12:38:24;6.55;;;4.82;;
18376;SDS011;9315;52.624;13.544;2022-08-20T12:40:51;8.85;;;5.63;;
18376;SDS011;9315;52.624;13.544;2022-08-20T12:43:18;4.95;;;4.40;;
18376;SDS011;9315;52.624;13.544;2022-08-20T12:45:50;5.20;;;4.68;;
18376;SDS011;9315;52.624;13.544;2022-08-20T12:48:17;6.47;;;5.20;;
18376;SDS011;9315;52.624;13.544;2022-08-20T12:50:45;6.47;;;4.70;;
18376;SDS011;9315;52.624;13.544;2022-08-20T12:53:15;7.80;;;5.10;;
18376;SDS011;9315;52.624;13.544;2022-08-20T12:55:42;8.15;;;4.80;;
18376;SDS011;9315;52.624;13.544;2022-08-20T12:58:09;5.15;;;4.65;;
18376;SDS011;9315;52.624;13.544;2022-08-20T13:00:38;5.82;;;4.40;;
18376;SDS011;9315;52.624;13.544;2022-08-20T13:03:16;5.32;;;4.70;;
18376;SDS011;9315;52.624;13.544;2022-08-20T13:05:45;5.60;;;4.40;;
18376;SDS011;9315;52.624;13.544;2022-08-20T13:08:12;7.40;;;4.68;;
18376;SDS011;9315;52.624;13.544;2022-08-20T13:10:40;6.47;;;4.55;;
18376;SDS011;9315;52.624;13.544;2022-08-20T13:13:12;9.07;;;4.80;;
18376;SDS011;9315;52.624;13.544;2022-08-20T13:15:45;5.35;;;4.85;;
18376;SDS011;9315;52.624;13.544;2022-08-20T13:18:15;5.50;;;4.85;;
18376;SDS011;9315;52.624;13.544;2022-08-20T13:20:43;5.65;;;4.55;;
18376;SDS011;9315;52.624;13.544;2022-08-20T13:23:10;8.15;;;4.90;;
18376;SDS011;9315;52.624;13.544;2022-08-20T13:25:37;6.40;;;5.40;;
18376;SDS011;9315;52.624;13.544;2022-08-20T13:28:04;7.93;;;5.60;;
18376;SDS011;9315;52.624;13.544;2022-08-20T13:30:32;7.53;;;5.75;;
18376;SDS011;9315;52.624;13.544;2022-08-20T13:33:03;8.60;;;6.10;;
18376;SDS011;9315;52.624;13.544;2022-08-20T13:35:30;10.15;;;6.75;;
18376;SDS011;9315;52.624;13.544;2022-08-20T13:37:57;7.32;;;6.55;;
18376;SDS011;9315;52.624;13.544;2022-08-20T13:40:24;9.82;;;6.75;;
18376;SDS011;9315;52.624;13.544;2022-08-20T13:42:53;9.80;;;7.22;;
18376;SDS011;9315;52.624;13.544;2022-08-20T13:45:20;11.80;;;8.05;;
18376;SDS011;9315;52.624;13.544;2022-08-20T13:47:49;10.77;;;7.30;;
18376;SDS011;9315;52.624;13.544;2022-08-20T13:50:20;9.57;;;7.35;;
18376;SDS011;9315;52.624;13.544;2022-08-20T13:52:50;10.50;;;7.95;;
18376;SDS011;9315;52.624;13.544;2022-08-20T13:55:18;12.13;;;8.20;;
18376;SDS011;9315;52.624;13.544;2022-08-20T13:57:49;11.02;;;8.55;;
18376;SDS011;9315;52.624;13.544;2022-08-20T14:00:24;11.95;;;9.00;;
18376;SDS011;9315;52.624;13.544;2022-08-20T14:03:01;10.00;;;9.00;;
18376;SDS011;9315;52.624;13.544;2022-08-20T14:05:31;12.88;;;8.38;;
18376;SDS011;9315;52.624;13.544;2022-08-20T14:08:20;14.32;;;8.52;;
18376;SDS011;9315;52.624;13.544;2022-08-20T14:10:48;13.52;;;10.20;;
18376;SDS011;9315;52.624;13.544;2022-08-20T14:13:17;11.93;;;8.65;;
18376;SDS011;9315;52.624;13.544;2022-08-20T14:15:49;13.25;;;10.32;;
18376;SDS011;9315;52.624;13.544;2022-08-20T14:18:16;16.23;;;11.70;;
18376;SDS011;9315;52.624;13.544;2022-08-20T14:20:44;17.48;;;12.15;;
18376;SDS011;9315;52.624;13.544;2022-08-20T14:23:12;15.57;;;11.20;;
18376;SDS011;9315;52.624;13.544;2022-08-20T14:25:41;20.08;;;11.35;;
18376;SDS011;9315;52.624;13.544;2022-08-20T14:28:14;12.15;;;10.55;;
18376;SDS011;9315;52.624;13.544;2022-08-20T14:30:48;15.70;;;12.50;;
18376;SDS011;9315;52.624;13.544;2022-08-20T14:33:19;19.25;;;12.50;;
18376;SDS011;9315;52.624;13.544;2022-08-20T14:35:48;17.92;;;12.43;;
18376;SDS011;9315;52.624;13.544;2022-08-20T14:38:16;15.65;;;12.13;;
18376;SDS011;9315;52.624;13.544;2022-08-20T14:40:43;19.05;;;12.82;;
18376;SDS011;9315;52.624;13.544;2022-08-20T14:43:11;22.58;;;12.68;;
18376;SDS011;9315;52.624;13.544;2022-08-20T14:45:38;19.08;;;13.18;;
18376;SDS011;9315;52.624;13.544;2022-08-20T14:48:05;18.90;;;12.63;;
18376;SDS011;9315;52.624;13.544;2022-08-20T14:50:34;17.48;;;12.55;;
18376;SDS011;9315;52.624;13.544;2022-08-20T14:53:02;15.80;;;12.20;;
18376;SDS011;9315;52.624;13.544;2022-08-20T14:55:31;14.18;;;11.57;;
18376;SDS011;9315;52.624;13.544;2022-08-20T14:58:06;14.60;;;11.75;;
18376;SDS011;9315;52.624;13.544;2022-08-20T15:00:36;12.65;;;11.05;;
18376;SDS011;9315;52.624;13.544;2022-08-20T15:03:04;13.65;;;11.18;;
18376;SDS011;9315;52.624;13.544;2022-08-20T15:05:32;18.45;;;11.77;;